sensor_id;sensor_type;location;lat;lon;timestamp;P1;durP1;ratioP1;P2;durP2;ratioP2
24585;SDS011;12743;52.262;6.172;2024-03-08T00:02:05;25.95;;;10.93;;
24585;SDS011;12743;52.262;6.172;2024-03-08T00:04:32;27.02;;;11.27;;
24585;SDS011;12743;52.262;6.172;2024-03-08T00:06:59;29.45;;;11.18;;
24585;SDS011;12743;52.262;6.172;2024-03-08T00:09:25;26.00;;;10.80;;
24585;SDS011;12743;52.262;6.172;2024-03-08T00:11:53;27.60;;;11.27;;
24585;SDS011;12743;52.262;6.172;2024-03-08T00:14:20;26.45;;;11.80;;
24585;SDS011;12743;52.262;6.172;2024-03-08T00:16:48;29.73;;;11.27;;
24585;SDS011;12743;52.262;6.172;2024-03-08T00:19:15;26.70;;;11.55;;
24585;SDS011;12743;52.262;6.172;2024-03-08T00:21:42;27.33;;;10.60;;
24585;SDS011;12743;52.262;6.172;2024-03-08T00:24:08;26.02;;;11.30;;
24585;SDS011;12743;52.262;6.172;2024-03-08T00:26:35;28.13;;;11.27;;
24585;SDS011;12743;52.262;6.172;2024-03-08T00:29:02;27.27;;;11.55;;
24585;SDS011;12743;52.262;6.172;2024-03-08T00:31:29;26.42;;;11.43;;
24585;SDS011;12743;52.262;6.172;2024-03-08T00:33:57;26.07;;;11.07;;
24585;SDS011;12743;52.262;6.172;2024-03-08T00:36:24;25.38;;;11.40;;
24585;SDS011;12743;52.262;6.172;2024-03-08T00:38:51;24.38;;;11.10;;
24585;SDS011;12743;52.262;6.172;2024-03-08T00:41:18;25.17;;;11.45;;
24585;SDS011;12743;52.262;6.172;2024-03-08T00:43:45;22.80;;;10.45;;
24585;SDS011;12743;52.262;6.172;2024-03-08T00:46:14;26.80;;;11.27;;
24585;SDS011;12743;52.262;6.172;2024-03-08T00:48:41;28.40;;;12.57;;
24585;SDS011;12743;52.262;6.172;2024-03-08T00:51:09;26.85;;;11.43;;
24585;SDS011;12743;52.262;6.172;2024-03-08T00:53:36;29.80;;;12.35;;
24585;SDS011;12743;52.262;6.172;2024-03-08T00:56:03;29.13;;;11.93;;
24585;SDS011;12743;52.262;6.172;2024-03-08T00:58:30;25.53;;;10.47;;
24585;SDS011;12743;52.262;6.172;2024-03-08T01:00:57;22.33;;;10.95;;
24585;SDS011;12743;52.262;6.172;2024-03-08T01:03:26;24.88;;;11.20;;
24585;SDS011;12743;52.262;6.172;2024-03-08T01:05:52;22.83;;;9.88;;
24585;SDS011;12743;52.262;6.172;2024-03-08T01:08:19;24.15;;;10.23;;
24585;SDS011;12743;52.262;6.172;2024-03-08T01:10:46;27.40;;;10.57;;
24585;SDS011;12743;52.262;6.172;2024-03-08T01:13:12;28.05;;;11.77;;
24585;SDS011;12743;52.262;6.172;2024-03-08T01:15:39;26.10;;;10.68;;
24585;SDS011;12743;52.262;6.172;2024-03-08T01:18:08;25.25;;;10.80;;
24585;SDS011;12743;52.262;6.172;2024-03-08T01:20:34;27.90;;;10.88;;
24585;SDS011;12743;52.262;6.172;2024-03-08T01:23:01;27.27;;;11.70;;
24585;SDS011;12743;52.262;6.172;2024-03-08T01:25:28;28.13;;;11.85;;
24585;SDS011;12743;52.262;6.172;2024-03-08T01:27:54;28.33;;;11.65;;
24585;SDS011;12743;52.262;6.172;2024-03-08T01:30:21;31.95;;;12.45;;
24585;SDS011;12743;52.262;6.172;2024-03-08T01:32:48;29.65;;;11.32;;
24585;SDS011;12743;52.262;6.172;2024-03-08T01:35:15;33.90;;;12.07;;
24585;SDS011;12743;52.262;6.172;2024-03-08T01:37:41;27.27;;;11.65;;
24585;SDS011;12743;52.262;6.172;2024-03-08T01:40:08;30.02;;;11.05;;
24585;SDS011;12743;52.262;6.172;2024-03-08T01:42:35;29.35;;;13.00;;
24585;SDS011;12743;52.262;6.172;2024-03-08T01:45:07;30.77;;;12.55;;
24585;SDS011;12743;52.262;6.172;2024-03-08T01:47:34;27.30;;;11.70;;
24585;SDS011;12743;52.262;6.172;2024-03-08T01:50:01;22.52;;;10.93;;
24585;SDS011;12743;52.262;6.172;2024-03-08T01:52:29;26.77;;;11.85;;
24585;SDS011;12743;52.262;6.172;2024-03-08T01:55:01;31.17;;;12.77;;
24585;SDS011;12743;52.262;6.172;2024-03-08T01:57:29;26.52;;;11.13;;
24585;SDS011;12743;52.262;6.172;2024-03-08T02:00:00;26.60;;;10.83;;
24585;SDS011;12743;52.262;6.172;2024-03-08T02:02:32;28.73;;;11.98;;
24585;SDS011;12743;52.262;6.172;2024-03-08T02:05:00;30.40;;;12.60;;
24585;SDS011;12743;52.262;6.172;2024-03-08T02:07:27;25.83;;;11.77;;
24585;SDS011;12743;52.262;6.172;2024-03-08T02:09:53;26.15;;;11.88;;
24585;SDS011;12743;52.262;6.172;2024-03-08T02:12:20;27.70;;;12.10;;
24585;SDS011;12743;52.262;6.172;2024-03-08T02:14:47;25.35;;;11.02;;
24585;SDS011;12743;52.262;6.172;2024-03-08T02:17:14;27.77;;;12.13;;
24585;SDS011;12743;52.262;6.172;2024-03-08T02:19:41;27.50;;;12.45;;
24585;SDS011;12743;52.262;6.172;2024-03-08T02:22:08;23.58;;;10.13;;
24585;SDS011;12743;52.262;6.172;2024-03-08T02:24:35;23.93;;;10.67;;
24585;SDS011;12743;52.262;6.172;2024-03-08T02:27:02;30.02;;;11.60;;
24585;SDS011;12743;52.262;6.172;2024-03-08T02:29:29;25.70;;;12.25;;
24585;SDS011;12743;52.262;6.172;2024-03-08T02:31:56;28.83;;;11.25;;
24585;SDS011;12743;52.262;6.172;2024-03-08T02:34:23;26.45;;;12.30;;
24585;SDS011;12743;52.262;6.172;2024-03-08T02:36:50;25.93;;;10.80;;
24585;SDS011;12743;52.262;6.172;2024-03-08T02:39:17;29.08;;;12.38;;
24585;SDS011;12743;52.262;6.172;2024-03-08T02:41:46;29.27;;;12.85;;
24585;SDS011;12743;52.262;6.172;2024-03-08T02:44:13;28.50;;;12.75;;
24585;SDS011;12743;52.262;6.172;2024-03-08T02:46:41;25.88;;;11.98;;
24585;SDS011;12743;52.262;6.172;2024-03-08T02:49:07;28.80;;;12.23;;
24585;SDS011;12743;52.262;6.172;2024-03-08T02:51:34;30.63;;;12.43;;
24585;SDS011;12743;52.262;6.172;2024-03-08T02:54:02;29.88;;;12.95;;
24585;SDS011;12743;52.262;6.172;2024-03-08T02:56:30;31.67;;;13.43;;
24585;SDS011;12743;52.262;6.172;2024-03-08T02:59:01;27.60;;;13.07;;
24585;SDS011;12743;52.262;6.172;2024-03-08T03:01:28;27.50;;;12.37;;
24585;SDS011;12743;52.262;6.172;2024-03-08T03:03:55;25.38;;;11.90;;
24585;SDS011;12743;52.262;6.172;2024-03-08T03:06:21;24.88;;;11.23;;
24585;SDS011;12743;52.262;6.172;2024-03-08T03:08:48;28.20;;;12.68;;
24585;SDS011;12743;52.262;6.172;2024-03-08T03:11:17;25.55;;;12.05;;
24585;SDS011;12743;52.262;6.172;2024-03-08T03:13:44;27.47;;;11.90;;
24585;SDS011;12743;52.262;6.172;2024-03-08T03:16:20;28.30;;;12.13;;
24585;SDS011;12743;52.262;6.172;2024-03-08T03:18:47;30.25;;;13.30;;
24585;SDS011;12743;52.262;6.172;2024-03-08T03:21:14;26.27;;;11.80;;
24585;SDS011;12743;52.262;6.172;2024-03-08T03:23:41;28.45;;;12.48;;
24585;SDS011;12743;52.262;6.172;2024-03-08T03:26:11;24.27;;;11.23;;
24585;SDS011;12743;52.262;6.172;2024-03-08T03:28:38;28.95;;;12.13;;
24585;SDS011;12743;52.262;6.172;2024-03-08T03:31:06;29.73;;;13.40;;
24585;SDS011;12743;52.262;6.172;2024-03-08T03:33:36;30.55;;;13.07;;
24585;SDS011;12743;52.262;6.172;2024-03-08T03:36:03;26.63;;;12.43;;
24585;SDS011;12743;52.262;6.172;2024-03-08T03:38:31;30.77;;;14.30;;
24585;SDS011;12743;52.262;6.172;2024-03-08T03:40:58;25.17;;;11.85;;
24585;SDS011;12743;52.262;6.172;2024-03-08T03:43:33;24.38;;;12.00;;
24585;SDS011;12743;52.262;6.172;2024-03-08T03:45:59;28.67;;;13.02;;
24585;SDS011;12743;52.262;6.172;2024-03-08T03:48:26;27.08;;;12.68;;
24585;SDS011;12743;52.262;6.172;2024-03-08T03:50:53;31.53;;;13.63;;
24585;SDS011;12743;52.262;6.172;2024-03-08T03:53:20;28.63;;;12.65;;
24585;SDS011;12743;52.262;6.172;2024-03-08T03:55:46;30.15;;;13.50;;
24585;SDS011;12743;52.262;6.172;2024-03-08T03:58:13;26.27;;;12.45;;
24585;SDS011;12743;52.262;6.172;2024-03-08T04:00:40;29.30;;;12.60;;
24585;SDS011;12743;52.262;6.172;2024-03-08T04:03:07;31.63;;;14.17;;
24585;SDS011;12743;52.262;6.172;2024-03-08T04:05:35;30.33;;;12.70;;
24585;SDS011;12743;52.262;6.172;2024-03-08T04:08:02;28.35;;;12.85;;
24585;SDS011;12743;52.262;6.172;2024-03-08T04:10:29;29.92;;;13.50;;
24585;SDS011;12743;52.262;6.172;2024-03-08T04:12:56;28.13;;;13.38;;
24585;SDS011;12743;52.262;6.172;2024-03-08T04:15:23;29.17;;;14.50;;
24585;SDS011;12743;52.262;6.172;2024-03-08T04:17:50;29.48;;;12.75;;
24585;SDS011;12743;52.262;6.172;2024-03-08T04:20:17;29.30;;;12.90;;
24585;SDS011;12743;52.262;6.172;2024-03-08T04:22:44;29.70;;;13.68;;
24585;SDS011;12743;52.262;6.172;2024-03-08T04:25:15;27.85;;;13.45;;
24585;SDS011;12743;52.262;6.172;2024-03-08T04:27:42;30.67;;;13.93;;
24585;SDS011;12743;52.262;6.172;2024-03-08T04:30:09;29.73;;;13.00;;
24585;SDS011;12743;52.262;6.172;2024-03-08T04:32:36;31.33;;;14.65;;
24585;SDS011;12743;52.262;6.172;2024-03-08T04:35:04;28.73;;;12.77;;
24585;SDS011;12743;52.262;6.172;2024-03-08T04:37:31;27.30;;;12.77;;
24585;SDS011;12743;52.262;6.172;2024-03-08T04:39:58;29.10;;;13.60;;
24585;SDS011;12743;52.262;6.172;2024-03-08T04:42:26;26.67;;;12.07;;
24585;SDS011;12743;52.262;6.172;2024-03-08T04:44:53;26.15;;;12.85;;
24585;SDS011;12743;52.262;6.172;2024-03-08T04:47:20;28.67;;;12.05;;
24585;SDS011;12743;52.262;6.172;2024-03-08T04:49:47;28.52;;;12.60;;
24585;SDS011;12743;52.262;6.172;2024-03-08T04:52:13;30.73;;;14.87;;
24585;SDS011;12743;52.262;6.172;2024-03-08T04:54:40;30.08;;;14.05;;
24585;SDS011;12743;52.262;6.172;2024-03-08T04:57:07;28.15;;;14.20;;
24585;SDS011;12743;52.262;6.172;2024-03-08T04:59:35;27.42;;;13.05;;
24585;SDS011;12743;52.262;6.172;2024-03-08T05:02:02;26.38;;;13.27;;
24585;SDS011;12743;52.262;6.172;2024-03-08T05:04:29;30.63;;;14.93;;
24585;SDS011;12743;52.262;6.172;2024-03-08T05:06:56;29.23;;;14.00;;
24585;SDS011;12743;52.262;6.172;2024-03-08T05:09:23;30.27;;;13.93;;
24585;SDS011;12743;52.262;6.172;2024-03-08T05:11:50;31.10;;;14.30;;
24585;SDS011;12743;52.262;6.172;2024-03-08T05:14:17;28.58;;;13.73;;
24585;SDS011;12743;52.262;6.172;2024-03-08T05:16:47;32.77;;;14.33;;
24585;SDS011;12743;52.262;6.172;2024-03-08T05:19:17;26.73;;;13.00;;
24585;SDS011;12743;52.262;6.172;2024-03-08T05:21:45;29.77;;;14.85;;
24585;SDS011;12743;52.262;6.172;2024-03-08T05:24:15;29.25;;;13.85;;
24585;SDS011;12743;52.262;6.172;2024-03-08T05:26:43;30.63;;;14.50;;
24585;SDS011;12743;52.262;6.172;2024-03-08T05:29:10;26.77;;;13.33;;
24585;SDS011;12743;52.262;6.172;2024-03-08T05:31:47;32.90;;;13.88;;
24585;SDS011;12743;52.262;6.172;2024-03-08T05:34:15;29.33;;;13.70;;
24585;SDS011;12743;52.262;6.172;2024-03-08T05:36:43;30.00;;;13.32;;
24585;SDS011;12743;52.262;6.172;2024-03-08T05:39:13;25.73;;;12.35;;
24585;SDS011;12743;52.262;6.172;2024-03-08T05:41:40;31.90;;;14.17;;
24585;SDS011;12743;52.262;6.172;2024-03-08T05:44:07;30.33;;;14.27;;
24585;SDS011;12743;52.262;6.172;2024-03-08T05:46:35;29.33;;;14.55;;
24585;SDS011;12743;52.262;6.172;2024-03-08T05:49:05;26.70;;;12.32;;
24585;SDS011;12743;52.262;6.172;2024-03-08T05:51:32;33.35;;;16.30;;
24585;SDS011;12743;52.262;6.172;2024-03-08T05:54:04;30.53;;;13.67;;
24585;SDS011;12743;52.262;6.172;2024-03-08T05:56:32;29.27;;;14.65;;
24585;SDS011;12743;52.262;6.172;2024-03-08T05:59:00;28.85;;;13.40;;
24585;SDS011;12743;52.262;6.172;2024-03-08T06:01:27;33.22;;;14.27;;
24585;SDS011;12743;52.262;6.172;2024-03-08T06:03:55;28.08;;;14.25;;
24585;SDS011;12743;52.262;6.172;2024-03-08T06:06:23;28.33;;;13.37;;
24585;SDS011;12743;52.262;6.172;2024-03-08T06:08:50;31.65;;;13.60;;
24585;SDS011;12743;52.262;6.172;2024-03-08T06:11:18;29.40;;;12.75;;
24585;SDS011;12743;52.262;6.172;2024-03-08T06:13:46;32.55;;;15.10;;
24585;SDS011;12743;52.262;6.172;2024-03-08T06:16:12;31.70;;;15.05;;
24585;SDS011;12743;52.262;6.172;2024-03-08T06:18:39;31.40;;;15.10;;
24585;SDS011;12743;52.262;6.172;2024-03-08T06:21:08;33.90;;;15.55;;
24585;SDS011;12743;52.262;6.172;2024-03-08T06:23:42;30.27;;;13.90;;
24585;SDS011;12743;52.262;6.172;2024-03-08T06:26:09;30.83;;;14.13;;
24585;SDS011;12743;52.262;6.172;2024-03-08T06:28:36;34.75;;;15.43;;
24585;SDS011;12743;52.262;6.172;2024-03-08T06:31:03;25.23;;;11.80;;
24585;SDS011;12743;52.262;6.172;2024-03-08T06:33:30;32.92;;;15.30;;
24585;SDS011;12743;52.262;6.172;2024-03-08T06:35:59;36.17;;;15.98;;
24585;SDS011;12743;52.262;6.172;2024-03-08T06:38:27;31.05;;;13.63;;
24585;SDS011;12743;52.262;6.172;2024-03-08T06:40:54;36.17;;;15.13;;
24585;SDS011;12743;52.262;6.172;2024-03-08T06:43:22;34.30;;;15.17;;
24585;SDS011;12743;52.262;6.172;2024-03-08T06:45:51;36.90;;;16.17;;
24585;SDS011;12743;52.262;6.172;2024-03-08T06:48:19;30.42;;;14.73;;
24585;SDS011;12743;52.262;6.172;2024-03-08T06:50:46;29.77;;;14.43;;
24585;SDS011;12743;52.262;6.172;2024-03-08T06:53:14;32.13;;;14.77;;
24585;SDS011;12743;52.262;6.172;2024-03-08T06:55:44;31.27;;;13.73;;
24585;SDS011;12743;52.262;6.172;2024-03-08T06:58:11;31.15;;;15.13;;
24585;SDS011;12743;52.262;6.172;2024-03-08T07:00:38;35.75;;;16.55;;
24585;SDS011;12743;52.262;6.172;2024-03-08T07:03:08;31.67;;;14.32;;
24585;SDS011;12743;52.262;6.172;2024-03-08T07:05:39;35.67;;;16.23;;
24585;SDS011;12743;52.262;6.172;2024-03-08T07:08:07;30.37;;;14.47;;
24585;SDS011;12743;52.262;6.172;2024-03-08T07:10:34;29.13;;;13.88;;
24585;SDS011;12743;52.262;6.172;2024-03-08T07:13:02;31.38;;;13.95;;
24585;SDS011;12743;52.262;6.172;2024-03-08T07:15:29;33.03;;;15.63;;
24585;SDS011;12743;52.262;6.172;2024-03-08T07:17:58;32.00;;;14.60;;
24585;SDS011;12743;52.262;6.172;2024-03-08T07:20:26;33.57;;;15.90;;
24585;SDS011;12743;52.262;6.172;2024-03-08T07:22:53;34.83;;;15.55;;
24585;SDS011;12743;52.262;6.172;2024-03-08T07:25:20;33.97;;;14.25;;
24585;SDS011;12743;52.262;6.172;2024-03-08T07:27:52;37.65;;;16.85;;
24585;SDS011;12743;52.262;6.172;2024-03-08T07:30:23;31.88;;;14.18;;
24585;SDS011;12743;52.262;6.172;2024-03-08T07:33:10;33.03;;;15.77;;
24585;SDS011;12743;52.262;6.172;2024-03-08T07:35:43;35.40;;;15.80;;
24585;SDS011;12743;52.262;6.172;2024-03-08T07:38:12;34.78;;;15.13;;
24585;SDS011;12743;52.262;6.172;2024-03-08T07:40:40;29.02;;;13.98;;
24585;SDS011;12743;52.262;6.172;2024-03-08T07:43:11;35.40;;;15.63;;
24585;SDS011;12743;52.262;6.172;2024-03-08T07:45:38;32.83;;;15.53;;
24585;SDS011;12743;52.262;6.172;2024-03-08T07:48:05;27.75;;;14.10;;
24585;SDS011;12743;52.262;6.172;2024-03-08T07:50:40;32.47;;;14.93;;
24585;SDS011;12743;52.262;6.172;2024-03-08T07:53:07;29.25;;;14.23;;
24585;SDS011;12743;52.262;6.172;2024-03-08T07:55:35;34.38;;;15.60;;
24585;SDS011;12743;52.262;6.172;2024-03-08T07:58:02;32.57;;;15.47;;
24585;SDS011;12743;52.262;6.172;2024-03-08T08:00:31;33.92;;;14.57;;
24585;SDS011;12743;52.262;6.172;2024-03-08T08:02:58;32.08;;;14.70;;
24585;SDS011;12743;52.262;6.172;2024-03-08T08:05:25;32.58;;;15.77;;
24585;SDS011;12743;52.262;6.172;2024-03-08T08:07:53;31.20;;;13.52;;
24585;SDS011;12743;52.262;6.172;2024-03-08T08:10:20;31.00;;;13.50;;
24585;SDS011;12743;52.262;6.172;2024-03-08T08:12:52;29.50;;;12.88;;
24585;SDS011;12743;52.262;6.172;2024-03-08T08:15:20;31.90;;;15.48;;
24585;SDS011;12743;52.262;6.172;2024-03-08T08:17:47;30.52;;;15.30;;
24585;SDS011;12743;52.262;6.172;2024-03-08T08:20:14;32.17;;;14.90;;
24585;SDS011;12743;52.262;6.172;2024-03-08T08:22:42;29.87;;;13.93;;
24585;SDS011;12743;52.262;6.172;2024-03-08T08:25:12;30.40;;;14.55;;
24585;SDS011;12743;52.262;6.172;2024-03-08T08:27:40;31.80;;;15.05;;
24585;SDS011;12743;52.262;6.172;2024-03-08T08:30:06;33.55;;;15.35;;
24585;SDS011;12743;52.262;6.172;2024-03-08T08:32:35;30.48;;;13.20;;
24585;SDS011;12743;52.262;6.172;2024-03-08T08:35:06;30.77;;;14.27;;
24585;SDS011;12743;52.262;6.172;2024-03-08T08:37:34;33.20;;;15.63;;
24585;SDS011;12743;52.262;6.172;2024-03-08T08:40:04;29.33;;;15.25;;
24585;SDS011;12743;52.262;6.172;2024-03-08T08:42:36;31.52;;;14.07;;
24585;SDS011;12743;52.262;6.172;2024-03-08T08:45:07;33.72;;;14.93;;
24585;SDS011;12743;52.262;6.172;2024-03-08T08:47:43;31.93;;;14.57;;
24585;SDS011;12743;52.262;6.172;2024-03-08T08:50:13;28.88;;;14.43;;
24585;SDS011;12743;52.262;6.172;2024-03-08T08:52:40;31.55;;;15.52;;
24585;SDS011;12743;52.262;6.172;2024-03-08T08:55:09;29.50;;;14.30;;
24585;SDS011;12743;52.262;6.172;2024-03-08T08:57:41;28.48;;;14.60;;
24585;SDS011;12743;52.262;6.172;2024-03-08T09:00:09;29.23;;;15.10;;
24585;SDS011;12743;52.262;6.172;2024-03-08T09:02:41;32.08;;;13.88;;
24585;SDS011;12743;52.262;6.172;2024-03-08T09:05:08;27.08;;;12.68;;
24585;SDS011;12743;52.262;6.172;2024-03-08T09:07:35;25.38;;;12.07;;
24585;SDS011;12743;52.262;6.172;2024-03-08T09:10:02;27.10;;;13.82;;
24585;SDS011;12743;52.262;6.172;2024-03-08T09:12:43;30.33;;;12.40;;
24585;SDS011;12743;52.262;6.172;2024-03-08T09:15:10;32.60;;;15.32;;
24585;SDS011;12743;52.262;6.172;2024-03-08T09:17:40;28.50;;;14.48;;
24585;SDS011;12743;52.262;6.172;2024-03-08T09:20:08;24.42;;;12.38;;
24585;SDS011;12743;52.262;6.172;2024-03-08T09:22:36;30.95;;;14.00;;
24585;SDS011;12743;52.262;6.172;2024-03-08T09:25:04;29.63;;;14.90;;
24585;SDS011;12743;52.262;6.172;2024-03-08T09:27:32;24.80;;;12.52;;
24585;SDS011;12743;52.262;6.172;2024-03-08T09:30:04;29.65;;;13.13;;
24585;SDS011;12743;52.262;6.172;2024-03-08T09:32:34;29.60;;;12.95;;
24585;SDS011;12743;52.262;6.172;2024-03-08T09:35:01;29.20;;;13.90;;
24585;SDS011;12743;52.262;6.172;2024-03-08T09:37:28;27.63;;;14.33;;
24585;SDS011;12743;52.262;6.172;2024-03-08T09:39:55;31.52;;;14.10;;
24585;SDS011;12743;52.262;6.172;2024-03-08T09:42:21;27.02;;;13.10;;
24585;SDS011;12743;52.262;6.172;2024-03-08T09:44:48;27.60;;;13.32;;
24585;SDS011;12743;52.262;6.172;2024-03-08T09:47:15;29.08;;;13.55;;
24585;SDS011;12743;52.262;6.172;2024-03-08T09:49:42;26.13;;;13.40;;
24585;SDS011;12743;52.262;6.172;2024-03-08T09:52:10;30.15;;;13.63;;
24585;SDS011;12743;52.262;6.172;2024-03-08T09:54:39;28.58;;;13.48;;
24585;SDS011;12743;52.262;6.172;2024-03-08T09:57:06;26.67;;;12.88;;
24585;SDS011;12743;52.262;6.172;2024-03-08T09:59:35;25.50;;;12.63;;
24585;SDS011;12743;52.262;6.172;2024-03-08T10:02:02;29.20;;;13.20;;
24585;SDS011;12743;52.262;6.172;2024-03-08T10:04:29;25.80;;;14.00;;
24585;SDS011;12743;52.262;6.172;2024-03-08T10:06:57;27.77;;;14.50;;
24585;SDS011;12743;52.262;6.172;2024-03-08T10:09:25;27.80;;;13.80;;
24585;SDS011;12743;52.262;6.172;2024-03-08T10:11:56;27.30;;;13.23;;
24585;SDS011;12743;52.262;6.172;2024-03-08T10:14:25;32.10;;;14.37;;
24585;SDS011;12743;52.262;6.172;2024-03-08T10:16:53;27.98;;;14.63;;
24585;SDS011;12743;52.262;6.172;2024-03-08T10:19:20;29.27;;;13.98;;
24585;SDS011;12743;52.262;6.172;2024-03-08T10:21:52;30.05;;;14.07;;
24585;SDS011;12743;52.262;6.172;2024-03-08T10:24:32;27.48;;;13.45;;
24585;SDS011;12743;52.262;6.172;2024-03-08T10:27:02;25.37;;;13.40;;
24585;SDS011;12743;52.262;6.172;2024-03-08T10:29:31;25.90;;;13.50;;
24585;SDS011;12743;52.262;6.172;2024-03-08T10:31:58;28.63;;;14.00;;
24585;SDS011;12743;52.262;6.172;2024-03-08T10:34:26;29.83;;;13.68;;
24585;SDS011;12743;52.262;6.172;2024-03-08T10:36:53;26.75;;;13.13;;
24585;SDS011;12743;52.262;6.172;2024-03-08T10:41:52;29.17;;;13.38;;
24585;SDS011;12743;52.262;6.172;2024-03-08T10:44:26;26.98;;;13.10;;
24585;SDS011;12743;52.262;6.172;2024-03-08T10:47:15;28.23;;;14.13;;
24585;SDS011;12743;52.262;6.172;2024-03-08T10:49:55;27.03;;;12.97;;
24585;SDS011;12743;52.262;6.172;2024-03-08T10:52:31;23.95;;;12.38;;
24585;SDS011;12743;52.262;6.172;2024-03-08T10:54:58;21.83;;;11.68;;
24585;SDS011;12743;52.262;6.172;2024-03-08T10:57:25;22.73;;;11.60;;
24585;SDS011;12743;52.262;6.172;2024-03-08T10:59:53;25.13;;;11.93;;
24585;SDS011;12743;52.262;6.172;2024-03-08T11:02:25;27.27;;;13.52;;
24585;SDS011;12743;52.262;6.172;2024-03-08T11:04:53;23.88;;;11.85;;
24585;SDS011;12743;52.262;6.172;2024-03-08T11:07:24;24.40;;;12.50;;
24585;SDS011;12743;52.262;6.172;2024-03-08T11:09:54;27.40;;;13.00;;
24585;SDS011;12743;52.262;6.172;2024-03-08T11:12:29;27.13;;;12.93;;
24585;SDS011;12743;52.262;6.172;2024-03-08T11:14:58;28.33;;;13.05;;
24585;SDS011;12743;52.262;6.172;2024-03-08T11:19:55;23.73;;;11.60;;
24585;SDS011;12743;52.262;6.172;2024-03-08T11:22:25;25.27;;;12.13;;
24585;SDS011;12743;52.262;6.172;2024-03-08T11:24:58;25.13;;;12.43;;
24585;SDS011;12743;52.262;6.172;2024-03-08T11:27:30;24.00;;;11.88;;
24585;SDS011;12743;52.262;6.172;2024-03-08T11:30:01;24.25;;;12.25;;
24585;SDS011;12743;52.262;6.172;2024-03-08T11:32:44;28.73;;;15.05;;
24585;SDS011;12743;52.262;6.172;2024-03-08T11:35:22;25.45;;;12.70;;
24585;SDS011;12743;52.262;6.172;2024-03-08T11:37:50;24.37;;;12.53;;
24585;SDS011;12743;52.262;6.172;2024-03-08T11:40:17;25.65;;;12.15;;
24585;SDS011;12743;52.262;6.172;2024-03-08T11:42:47;27.90;;;13.27;;
24585;SDS011;12743;52.262;6.172;2024-03-08T11:45:15;29.63;;;13.20;;
24585;SDS011;12743;52.262;6.172;2024-03-08T11:47:47;24.80;;;12.20;;
24585;SDS011;12743;52.262;6.172;2024-03-08T11:50:16;24.77;;;11.53;;
24585;SDS011;12743;52.262;6.172;2024-03-08T11:52:46;22.80;;;11.85;;
24585;SDS011;12743;52.262;6.172;2024-03-08T11:55:13;23.75;;;11.77;;
24585;SDS011;12743;52.262;6.172;2024-03-08T11:57:40;24.85;;;12.00;;
24585;SDS011;12743;52.262;6.172;2024-03-08T12:00:17;26.13;;;12.75;;
24585;SDS011;12743;52.262;6.172;2024-03-08T12:03:01;25.17;;;12.57;;
24585;SDS011;12743;52.262;6.172;2024-03-08T12:05:32;23.17;;;10.90;;
24585;SDS011;12743;52.262;6.172;2024-03-08T12:08:02;26.75;;;12.15;;
24585;SDS011;12743;52.262;6.172;2024-03-08T12:10:29;20.70;;;10.80;;
24585;SDS011;12743;52.262;6.172;2024-03-08T12:12:58;21.70;;;10.95;;
24585;SDS011;12743;52.262;6.172;2024-03-08T12:15:29;22.00;;;10.27;;
24585;SDS011;12743;52.262;6.172;2024-03-08T12:18:01;21.23;;;9.82;;
24585;SDS011;12743;52.262;6.172;2024-03-08T12:20:31;19.90;;;10.32;;
24585;SDS011;12743;52.262;6.172;2024-03-08T12:22:58;19.55;;;10.48;;
24585;SDS011;12743;52.262;6.172;2024-03-08T12:25:32;22.08;;;10.48;;
24585;SDS011;12743;52.262;6.172;2024-03-08T12:28:12;18.73;;;9.97;;
24585;SDS011;12743;52.262;6.172;2024-03-08T12:33:19;20.75;;;10.65;;
24585;SDS011;12743;52.262;6.172;2024-03-08T12:35:50;21.98;;;10.45;;
24585;SDS011;12743;52.262;6.172;2024-03-08T12:38:21;19.92;;;10.13;;
24585;SDS011;12743;52.262;6.172;2024-03-08T12:41:00;21.90;;;10.93;;
24585;SDS011;12743;52.262;6.172;2024-03-08T12:43:28;18.60;;;9.55;;
24585;SDS011;12743;52.262;6.172;2024-03-08T12:45:58;19.10;;;9.80;;
24585;SDS011;12743;52.262;6.172;2024-03-08T12:48:24;18.90;;;9.88;;
24585;SDS011;12743;52.262;6.172;2024-03-08T12:50:51;20.92;;;10.07;;
24585;SDS011;12743;52.262;6.172;2024-03-08T12:53:20;21.03;;;9.93;;
24585;SDS011;12743;52.262;6.172;2024-03-08T12:55:46;20.85;;;10.55;;
24585;SDS011;12743;52.262;6.172;2024-03-08T12:58:13;19.85;;;10.38;;
24585;SDS011;12743;52.262;6.172;2024-03-08T13:00:43;17.00;;;9.23;;
24585;SDS011;12743;52.262;6.172;2024-03-08T13:03:10;19.25;;;9.60;;
24585;SDS011;12743;52.262;6.172;2024-03-08T13:05:38;20.70;;;10.20;;
24585;SDS011;12743;52.262;6.172;2024-03-08T13:08:06;17.67;;;8.63;;
24585;SDS011;12743;52.262;6.172;2024-03-08T13:10:42;18.38;;;9.70;;
24585;SDS011;12743;52.262;6.172;2024-03-08T13:13:11;20.95;;;10.27;;
24585;SDS011;12743;52.262;6.172;2024-03-08T13:15:44;19.27;;;9.07;;
24585;SDS011;12743;52.262;6.172;2024-03-08T13:18:11;19.43;;;10.07;;
24585;SDS011;12743;52.262;6.172;2024-03-08T13:20:39;21.92;;;10.23;;
24585;SDS011;12743;52.262;6.172;2024-03-08T13:23:13;20.42;;;9.93;;
24585;SDS011;12743;52.262;6.172;2024-03-08T13:25:39;20.73;;;9.82;;
24585;SDS011;12743;52.262;6.172;2024-03-08T13:28:07;18.70;;;9.70;;
24585;SDS011;12743;52.262;6.172;2024-03-08T13:30:35;17.23;;;8.43;;
24585;SDS011;12743;52.262;6.172;2024-03-08T13:33:02;20.30;;;9.93;;
24585;SDS011;12743;52.262;6.172;2024-03-08T13:35:31;17.35;;;8.98;;
24585;SDS011;12743;52.262;6.172;2024-03-08T13:37:59;21.05;;;10.75;;
24585;SDS011;12743;52.262;6.172;2024-03-08T13:40:26;20.30;;;9.70;;
24585;SDS011;12743;52.262;6.172;2024-03-08T13:42:53;18.43;;;10.17;;
24585;SDS011;12743;52.262;6.172;2024-03-08T13:45:20;19.38;;;10.13;;
24585;SDS011;12743;52.262;6.172;2024-03-08T13:47:49;20.00;;;10.00;;
24585;SDS011;12743;52.262;6.172;2024-03-08T13:50:19;15.48;;;7.93;;
24585;SDS011;12743;52.262;6.172;2024-03-08T13:52:50;19.70;;;10.07;;
24585;SDS011;12743;52.262;6.172;2024-03-08T13:55:22;20.57;;;10.20;;
24585;SDS011;12743;52.262;6.172;2024-03-08T13:57:50;19.17;;;9.07;;
24585;SDS011;12743;52.262;6.172;2024-03-08T14:00:18;16.40;;;9.18;;
24585;SDS011;12743;52.262;6.172;2024-03-08T14:02:49;18.38;;;8.98;;
24585;SDS011;12743;52.262;6.172;2024-03-08T14:05:15;19.63;;;9.77;;
24585;SDS011;12743;52.262;6.172;2024-03-08T14:07:44;19.30;;;8.60;;
24585;SDS011;12743;52.262;6.172;2024-03-08T14:10:13;15.05;;;7.70;;
24585;SDS011;12743;52.262;6.172;2024-03-08T14:12:40;17.38;;;8.98;;
24585;SDS011;12743;52.262;6.172;2024-03-08T14:15:10;17.35;;;8.85;;
24585;SDS011;12743;52.262;6.172;2024-03-08T14:17:39;16.42;;;9.13;;
24585;SDS011;12743;52.262;6.172;2024-03-08T14:20:06;16.33;;;8.00;;
24585;SDS011;12743;52.262;6.172;2024-03-08T14:22:33;16.73;;;8.73;;
24585;SDS011;12743;52.262;6.172;2024-03-08T14:25:00;19.30;;;9.48;;
24585;SDS011;12743;52.262;6.172;2024-03-08T14:27:31;17.25;;;8.65;;
24585;SDS011;12743;52.262;6.172;2024-03-08T14:29:58;18.40;;;8.55;;
24585;SDS011;12743;52.262;6.172;2024-03-08T14:32:26;18.00;;;9.27;;
24585;SDS011;12743;52.262;6.172;2024-03-08T14:34:54;16.35;;;8.85;;
24585;SDS011;12743;52.262;6.172;2024-03-08T14:37:21;14.80;;;7.97;;
24585;SDS011;12743;52.262;6.172;2024-03-08T14:39:54;16.90;;;9.07;;